Time;durP1;ratioP1;P1;durP2;ratioP2;P2;SDS_P1;SDS_P2;PMS_P1;PMS_P2;Temp;Humidity;BMP_temperature;BMP_pressure;BME280_temperature;BME280_humidity;BME280_pressure;Samples;Min_cycle;Max_cycle;Signal;HPM_P1;HPM_P2
2023/06/11 00:00:55;;;;;;;;;35.00;32.67;;;;;25.88;52.97;100792.31;4998990;28;46605;-75
2023/06/11 00:03:21;;;;;;;;;30.67;30.33;;;;;25.90;52.75;100784.72;4982731;28;45300;-77
2023/06/11 00:05:47;;;;;;;;;36.67;33.67;;;;;25.82;53.29;100776.09;5000313;28;45277;-75
2023/06/11 00:08:12;;;;;;;;;38.67;33.00;;;;;25.72;53.85;100765.84;5001146;28;45544;-75
2023/06/11 00:10:37;;;;;;;;;52.33;40.67;;;;;25.62;53.99;100760.97;5001085;28;46608;-77
2023/06/11 00:13:03;;;;;;;;;48.00;38.67;;;;;25.64;54.58;100777.09;5000332;28;45254;-77
2023/06/11 00:15:28;;;;;;;;;44.33;38.33;;;;;25.33;54.98;100729.38;4995785;28;45467;-76
2023/06/11 00:17:53;;;;;;;;;40.33;36.00;;;;;25.58;55.40;100778.88;4984098;28;45340;-75
2023/06/11 00:20:20;;;;;;;;;33.67;31.00;;;;;25.32;55.07;100744.06;4981812;28;46931;-76
2023/06/11 00:22:46;;;;;;;;;33.67;32.00;;;;;25.51;55.17;100788.25;4982459;28;45974;-75
2023/06/11 00:25:12;;;;;;;;;35.00;32.00;;;;;25.37;55.70;100765.91;4982409;28;45234;-75
2023/06/11 00:27:37;;;;;;;;;33.33;30.33;;;;;25.45;55.49;100790.06;4998958;28;45581;-74
2023/06/11 00:30:04;;;;;;;;;31.33;31.00;;;;;25.43;55.52;100781.31;4982242;28;46973;-75
2023/06/11 00:32:34;;;;;;;;;35.67;33.00;;;;;24.45;55.60;100619.81;4999588;28;45420;-76
2023/06/11 00:35:00;;;;;;;;;29.33;28.33;;;;;25.51;55.60;100785.53;4998289;28;45350;-75
2023/06/11 00:37:26;;;;;;;;;32.67;30.00;;;;;25.48;55.53;100787.69;4983819;28;45492;-74
2023/06/11 00:39:51;;;;;;;;;31.00;29.67;;;;;25.26;55.78;100772.25;4999773;28;45393;-74
2023/06/11 00:42:19;;;;;;;;;31.00;30.67;;;;;25.26;55.68;100783.13;4982245;28;46467;-74
2023/06/11 00:44:45;;;;;;;;;29.00;28.00;;;;;25.34;55.84;100789.00;5000031;28;45436;-75
2023/06/11 00:47:10;;;;;;;;;29.67;29.67;;;;;25.41;56.00;100802.47;4981887;28;45312;-76
2023/06/11 00:49:36;;;;;;;;;31.33;31.00;;;;;25.43;55.77;100793.03;4980056;28;46655;-77
2023/06/11 00:52:03;;;;;;;;;32.33;31.00;;;;;25.21;56.12;100753.88;4979737;28;45433;-75
2023/06/11 00:54:28;;;;;;;;;25.33;24.33;;;;;25.36;56.22;100784.16;4979963;28;45435;-74
2023/06/11 00:56:54;;;;;;;;;35.67;32.00;;;;;25.37;56.04;100785.81;4979884;28;45503;-75
2023/06/11 00:59:20;;;;;;;;;28.33;28.00;;;;;25.43;55.59;100794.91;4979982;28;46475;-76
2023/06/11 01:01:56;;;;;;;;;30.00;29.00;;;;;25.41;55.81;100803.31;4962329;28;45301;-76
2023/06/11 01:04:23;;;;;;;;;28.67;26.67;;;;;25.29;56.47;100794.34;4979634;28;45307;-75
2023/06/11 01:06:52;;;;;;;;;30.00;28.33;;;;;25.35;56.44;100809.72;4980932;28;45213;-74
2023/06/11 01:09:22;;;;;;;;;31.33;27.67;;;;;25.31;56.38;100799.56;4979891;28;45868;-74
2023/06/11 01:11:49;;;;;;;;;35.00;28.33;;;;;25.40;57.04;100812.53;4978201;28;45603;-74
2023/06/11 01:14:16;;;;;;;;;30.33;30.00;;;;;25.39;56.67;100816.31;4979958;28;45316;-76
2023/06/11 01:16:53;;;;;;;;;27.67;27.67;;;;;25.34;56.38;100804.50;4975826;28;45497;-76
2023/06/11 01:19:37;;;;;;;;;27.33;27.33;;;;;25.39;56.67;100812.78;4999201;28;45842;-76
2023/06/11 01:22:29;;;;;;;;;26.67;26.00;;;;;25.37;56.30;100806.75;4999346;28;45259;-75
2023/06/11 01:25:03;;;;;;;;;34.67;30.00;;;;;25.27;56.37;100792.94;4991172;28;45461;-76
2023/06/11 01:27:56;;;;;;;;;32.67;29.67;;;;;24.99;57.01;100750.13;4981832;28;45540;-76
2023/06/11 01:30:23;;;;;;;;;29.67;28.33;;;;;25.18;57.51;100785.13;4981840;28;48218;-75
2023/06/11 01:32:55;;;;;;;;;32.00;31.33;;;;;25.18;57.24;100776.97;4981896;28;45670;-76
2023/06/11 01:35:21;;;;;;;;;36.33;31.33;;;;;25.26;57.21;100780.41;4999636;28;45238;-75
2023/06/11 01:37:55;;;;;;;;;29.67;24.00;;;;;25.06;56.81;100759.84;4999150;28;45218;-74
2023/06/11 01:40:24;;;;;;;;;27.67;27.67;;;;;24.85;56.54;100716.94;4998803;28;45773;-76
2023/06/11 01:42:50;;;;;;;;;30.00;27.67;;;;;25.21;56.70;100774.84;4999095;28;45329;-75
2023/06/11 01:45:18;;;;;;;;;31.00;26.00;;;;;25.23;56.83;100783.56;4996309;28;45250;-75
2023/06/11 01:47:44;;;;;;;;;31.67;28.67;;;;;25.20;56.62;100768.56;4981199;28;45314;-75
2023/06/11 01:50:12;;;;;;;;;29.00;27.67;;;;;25.11;56.72;100768.13;4984906;28;46158;-74
2023/06/11 01:52:41;;;;;;;;;25.00;24.67;;;;;24.91;56.74;100743.16;4961309;28;45377;-75
2023/06/11 01:55:06;;;;;;;;;31.00;31.00;;;;;25.17;56.64;100786.19;4979379;28;45339;-75
2023/06/11 01:57:33;;;;;;;;;32.00;31.00;;;;;25.15;56.18;100788.34;4979228;28;45527;-75
2023/06/11 01:59:59;;;;;;;;;25.67;24.33;;;;;25.13;56.96;100790.47;4978733;28;45578;-75
2023/06/11 02:02:28;;;;;;;;;31.33;28.67;;;;;25.15;56.69;100792.94;4962343;28;46235;-75
2023/06/11 02:04:53;;;;;;;;;26.33;25.33;;;;;25.17;56.37;100796.25;4979079;28;45343;-74
2023/06/11 02:07:19;;;;;;;;;27.67;25.00;;;;;25.00;56.47;100779.84;4978409;28;49041;-75
2023/06/11 02:09:45;;;;;;;;;36.00;33.00;;;;;25.02;56.74;100788.56;4978711;28;45768;-75
2023/06/11 02:12:10;;;;;;;;;29.00;29.00;;;;;24.99;56.64;100789.06;4978677;28;45231;-74
2023/06/11 02:14:36;;;;;;;;;29.67;28.33;;;;;24.99;56.84;100785.47;4978898;28;45596;-74
2023/06/11 02:17:01;;;;;;;;;31.33;30.33;;;;;25.05;56.16;100788.13;4978974;28;45422;-75
2023/06/11 02:19:27;;;;;;;;;24.00;24.00;;;;;25.04;56.86;100791.09;4978442;28;45740;-76
2023/06/11 02:21:52;;;;;;;;;29.33;27.33;;;;;24.53;56.63;100709.16;4978240;28;45500;-75
2023/06/11 02:24:17;;;;;;;;;34.67;30.67;;;;;25.01;56.56;100780.66;4979421;28;45486;-74
2023/06/11 02:26:43;;;;;;;;;31.33;30.33;;;;;24.96;56.65;100789.50;4979830;28;45484;-76
2023/06/11 02:29:08;;;;;;;;;37.00;32.33;;;;;24.47;56.88;100720.97;4979824;28;45496;-74
2023/06/11 02:31:33;;;;;;;;;31.00;29.33;;;;;24.44;57.50;100710.56;4979633;28;45812;-75
2023/06/11 02:33:59;;;;;;;;;36.00;29.67;;;;;24.84;57.27;100780.53;4978906;28;45278;-77
2023/06/11 02:36:24;;;;;;;;;30.67;30.00;;;;;24.66;57.73;100756.19;4960672;28;45509;-77
2023/06/11 02:38:49;;;;;;;;;33.67;28.00;;;;;24.76;57.67;100770.00;4978742;28;45976;-75
2023/06/11 02:41:15;;;;;;;;;33.00;30.33;;;;;24.72;57.83;100766.13;4978652;28;45321;-76
2023/06/11 02:43:41;;;;;;;;;34.00;30.67;;;;;24.82;57.71;100774.50;4978923;28;45527;-77
2023/06/11 02:46:06;;;;;;;;;28.33;26.00;;;;;24.72;57.44;100755.22;4971823;28;45556;-75
2023/06/11 02:48:32;;;;;;;;;31.33;30.00;;;;;24.72;57.89;100755.22;4980089;28;48638;-76
2023/06/11 02:50:57;;;;;;;;;33.33;30.67;;;;;24.79;57.97;100770.34;4997616;28;45320;-75
2023/06/11 02:53:22;;;;;;;;;34.00;30.67;;;;;24.70;57.88;100758.19;4980350;28;45228;-75
2023/06/11 02:55:48;;;;;;;;;30.33;28.67;;;;;24.73;58.33;100767.75;4998801;28;45322;-75
2023/06/11 02:58:13;;;;;;;;;32.33;30.00;;;;;24.72;58.40;100766.13;5000211;28;45574;-75
2023/06/11 03:00:38;;;;;;;;;36.67;32.67;;;;;24.71;58.22;100764.47;4980905;28;45433;-76
2023/06/11 03:03:04;;;;;;;;;33.33;30.33;;;;;24.64;58.17;100758.31;4997844;28;45180;-74
2023/06/11 03:05:29;;;;;;;;;10.67;7.00;;;;;24.75;58.06;100773.78;4997729;28;45290;-74
2023/06/11 03:07:54;;;;;;;;;31.00;28.33;;;;;24.72;57.82;100766.94;4996232;28;50724;-76
2023/06/11 03:10:20;;;;;;;;;31.00;25.33;;;;;24.70;57.74;100765.53;4997736;28;45348;-75
2023/06/11 03:12:45;;;;;;;;;31.33;29.67;;;;;24.69;57.92;100769.31;4997518;28;45504;-75
2023/06/11 03:15:11;;;;;;;;;31.33;29.33;;;;;24.63;58.10;100762.06;4994329;28;45380;-77
2023/06/11 03:17:36;;;;;;;;;30.33;27.67;;;;;24.49;58.05;100735.16;4977900;28;47872;-75
2023/06/11 03:20:01;;;;;;;;;26.67;26.33;;;;;24.70;58.12;100766.34;4977378;28;48927;-75
2023/06/11 03:22:27;;;;;;;;;29.33;27.00;;;;;24.75;57.93;100769.19;4978260;28;45406;-77
2023/06/11 03:24:52;;;;;;;;;28.33;28.33;;;;;24.71;57.72;100768.00;4977534;28;45474;-73
2023/06/11 03:27:17;;;;;;;;;29.33;29.33;;;;;24.75;57.73;100776.50;4979157;28;55420;-74
2023/06/11 03:29:43;;;;;;;;;29.67;29.00;;;;;24.67;57.40;100769.53;4977970;28;45414;-73
2023/06/11 03:32:08;;;;;;;;;26.00;23.67;;;;;24.67;57.12;100772.25;4977947;28;45396;-74
2023/06/11 03:34:33;;;;;;;;;28.67;27.00;;;;;24.72;57.27;100782.44;4978206;28;45366;-74
2023/06/11 03:36:59;;;;;;;;;24.33;20.67;;;;;24.64;57.29;100770.03;4977483;28;46356;-75
2023/06/11 03:39:24;;;;;;;;;24.33;23.00;;;;;24.57;57.33;100753.81;4977649;28;45517;-74
2023/06/11 03:41:49;;;;;;;;;28.67;28.67;;;;;24.53;57.82;100749.91;4960278;28;45226;-75
2023/06/11 03:44:15;;;;;;;;;33.00;30.67;;;;;24.73;57.70;100781.34;4976508;28;45392;-75
2023/06/11 03:46:41;;;;;;;;;30.00;27.67;;;;;24.68;58.04;100773.09;4978485;28;45514;-75
2023/06/11 03:49:06;;;;;;;;;25.67;25.00;;;;;24.72;57.93;100787.88;4960023;28;45533;-77
2023/06/11 03:51:31;;;;;;;;;30.33;26.67;;;;;24.63;58.35;100772.94;4977253;28;45350;-75
2023/06/11 03:53:57;;;;;;;;;31.00;30.67;;;;;24.62;58.59;100777.56;4979140;28;45412;-75
2023/06/11 03:56:22;;;;;;;;;29.67;27.67;;;;;24.67;58.26;100787.75;4978168;28;46589;-77
2023/06/11 03:58:47;;;;;;;;;26.67;25.00;;;;;24.66;58.23;100777.94;4977567;28;45166;-77
2023/06/11 04:01:13;;;;;;;;;16.67;16.67;;;;;24.74;58.15;100783.00;4977174;28;53513;-76
2023/06/11 04:03:39;;;;;;;;;28.00;27.67;;;;;24.64;57.96;100763.75;4959990;28;45337;-75
2023/06/11 04:06:04;;;;;;;;;31.00;27.33;;;;;24.79;58.04;100785.84;4977416;28;46534;-75
2023/06/11 04:08:30;;;;;;;;;28.00;23.33;;;;;24.80;57.47;100779.34;4977662;28;45239;-78
2023/06/11 04:10:55;;;;;;;;;23.00;22.33;;;;;24.46;57.27;100726.63;4977791;28;45262;-76
2023/06/11 04:13:20;;;;;;;;;28.00;25.33;;;;;24.76;57.87;100770.84;4960142;28;45585;-77
2023/06/11 04:15:46;;;;;;;;;26.00;24.00;;;;;24.83;57.19;100784.34;4977637;28;46687;-77
2023/06/11 04:18:11;;;;;;;;;26.33;24.33;;;;;24.80;57.01;100780.16;4977163;28;45485;-76
2023/06/11 04:20:37;;;;;;;;;27.33;25.00;;;;;24.82;57.11;100775.31;4959676;28;45401;-75
2023/06/11 04:23:02;;;;;;;;;25.00;24.67;;;;;24.93;57.04;100789.97;4977741;28;45519;-75
2023/06/11 04:25:31;;;;;;;;;21.33;18.67;;;;;24.96;56.90;100788.69;4960033;28;47844;-75
2023/06/11 04:27:57;;;;;;;;;18.67;18.00;;;;;24.40;56.76;100695.78;4977329;28;45263;-77
2023/06/11 04:30:22;;;;;;;;;23.33;19.67;;;;;25.00;56.32;100785.28;4976982;28;45280;-76
2023/06/11 04:32:54;;;;;;;;;18.67;18.67;;;;;25.03;56.25;100789.41;4977288;28;45311;-74
2023/06/11 04:35:21;;;;;;;;;19.33;19.00;;;;;24.96;55.57;100785.97;4959021;28;47616;-77
2023/06/11 04:37:47;;;;;;;;;19.67;18.67;;;;;25.00;56.15;100782.56;4979993;28;45236;-76
2023/06/11 04:40:13;;;;;;;;;20.67;20.33;;;;;25.06;56.58;100797.94;4979426;28;45267;-76
2023/06/11 04:42:40;;;;;;;;;20.67;20.67;;;;;25.04;56.26;100794.63;4962164;28;45697;-75
2023/06/11 04:45:07;;;;;;;;;20.00;19.33;;;;;25.01;56.40;100789.66;4964976;28;46591;-76
2023/06/11 04:47:34;;;;;;;;;21.33;20.33;;;;;25.07;56.43;100796.03;4973912;28;45513;-75
2023/06/11 04:50:03;;;;;;;;;23.00;21.67;;;;;25.03;57.11;100787.53;4944430;28;45419;-75
2023/06/11 04:52:34;;;;;;;;;27.00;24.00;;;;;25.04;57.24;100788.38;4943732;28;45408;-74
2023/06/11 04:55:01;;;;;;;;;19.67;19.67;;;;;24.93;57.41;100773.66;4943567;28;48524;-75
2023/06/11 04:57:27;;;;;;;;;22.00;20.00;;;;;25.10;57.87;100790.94;4958646;28;45328;-74
2023/06/11 04:59:52;;;;;;;;;20.67;19.00;;;;;25.04;57.91;100781.03;4974391;28;45376;-76
2023/06/11 05:02:17;;;;;;;;;17.67;17.33;;;;;25.14;58.00;100791.28;4979957;28;45345;-76
2023/06/11 05:04:43;;;;;;;;;24.00;21.67;;;;;25.14;57.89;100791.28;4979273;28;52069;-76
2023/06/11 05:07:08;;;;;;;;;18.67;18.33;;;;;24.96;58.02;100756.03;4965728;28;45477;-78
2023/06/11 05:09:33;;;;;;;;;18.33;17.33;;;;;25.16;58.10;100800.88;4974661;28;45297;-77
2023/06/11 05:11:59;;;;;;;;;18.67;17.33;;;;;25.14;58.03;100792.13;4962202;28;45339;-76
2023/06/11 05:14:24;;;;;;;;;21.33;20.33;;;;;25.15;58.49;100796.50;4947119;28;47484;-77
2023/06/11 05:16:53;;;;;;;;;19.67;19.00;;;;;24.75;57.86;100741.16;4977808;28;46189;-77
2023/06/11 05:19:18;;;;;;;;;20.00;17.67;;;;;25.05;58.32;100787.31;4981303;28;45297;-77
2023/06/11 05:21:43;;;;;;;;;18.00;16.67;;;;;25.07;58.77;100796.88;4979478;28;45369;-77
2023/06/11 05:24:18;;;;;;;;;21.67;19.67;;;;;25.05;59.12;100793.56;4978289;28;48100;-77
2023/06/11 05:26:43;;;;;;;;;18.33;18.00;;;;;25.10;58.76;100801.00;4979612;28;45416;-77
2023/06/11 05:29:09;;;;;;;;;20.00;18.67;;;;;24.83;58.61;100759.84;4961275;28;45347;-77
2023/06/11 05:31:35;;;;;;;;;28.00;21.33;;;;;25.10;58.55;100806.44;4979375;28;45365;-75
2023/06/11 05:34:01;;;;;;;;;19.67;18.00;;;;;25.10;58.52;100790.94;4979027;28;45815;-77
2023/06/11 05:36:27;;;;;;;;;19.00;18.00;;;;;25.12;58.46;100798.88;4979022;28;45481;-77
2023/06/11 05:38:53;;;;;;;;;19.33;17.00;;;;;25.00;58.36;100779.84;4978001;28;45263;-77
2023/06/11 05:41:19;;;;;;;;;19.00;19.00;;;;;25.20;58.49;100809.38;4979735;28;45418;-75
2023/06/11 05:43:45;;;;;;;;;19.00;16.33;;;;;25.04;58.20;100782.94;4978831;28;46443;-76
2023/06/11 05:46:10;;;;;;;;;24.00;24.00;;;;;25.23;58.31;100816.22;4980379;28;45959;-76
2023/06/11 05:48:35;;;;;;;;;17.33;15.67;;;;;25.10;58.52;100776.53;4979196;28;45183;-76
2023/06/11 05:51:01;;;;;;;;;19.33;18.00;;;;;25.25;58.36;100798.63;4981070;28;45437;-77
2023/06/11 05:53:26;;;;;;;;;19.00;18.00;;;;;25.27;57.91;100791.03;4978886;28;45468;-78
2023/06/11 05:55:52;;;;;;;;;21.33;20.67;;;;;25.29;58.18;100786.19;4962736;28;45480;-77
2023/06/11 05:58:17;;;;;;;;;15.67;14.00;;;;;25.40;58.47;100801.66;4976477;28;45409;-77
2023/06/11 06:00:42;;;;;;;;;22.67;19.33;;;;;25.09;58.09;100745.78;4978835;28;45474;-77
2023/06/11 06:03:08;;;;;;;;;19.33;19.00;;;;;25.57;57.53;100812.63;4978553;28;45732;-77
2023/06/11 06:05:34;;;;;;;;;19.67;18.33;;;;;25.61;57.58;100813.78;4993416;28;45536;-77
2023/06/11 06:07:59;;;;;;;;;19.33;16.67;;;;;25.51;57.64;100780.91;4984412;28;45411;-78
2023/06/11 06:10:24;;;;;;;;;18.67;18.67;;;;;25.67;57.00;100807.44;4961345;28;45573;-76
2023/06/11 06:12:50;;;;;;;;;18.67;18.67;;;;;25.65;56.84;100795.09;4947795;28;47051;-76
2023/06/11 06:15:16;;;;;;;;;18.33;16.33;;;;;25.37;56.84;100741.44;4961058;28;45567;-76
2023/06/11 06:17:41;;;;;;;;;18.33;17.00;;;;;25.78;56.60;100801.09;4970450;28;45334;-76
2023/06/11 06:20:09;;;;;;;;;17.00;17.00;;;;;25.84;56.75;100806.66;4976956;28;45306;-78
2023/06/11 06:22:34;;;;;;;;;19.00;17.67;;;;;25.84;55.97;100812.94;4959578;28;47537;-78
2023/06/11 06:24:59;;;;;;;;;19.67;18.00;;;;;25.90;55.79;100822.03;4959758;28;46322;-77
2023/06/11 06:27:25;;;;;;;;;20.67;18.67;;;;;25.94;55.75;100824.00;4959409;28;45599;-76
2023/06/11 06:29:50;;;;;;;;;24.33;24.33;;;;;25.89;55.84;100809.47;4976825;28;45508;-77
2023/06/11 06:32:15;;;;;;;;;23.67;21.33;;;;;25.78;54.58;100798.38;4976373;28;46008;-78
2023/06/11 06:34:41;;;;;;;;;20.67;20.67;;;;;26.00;54.92;100822.19;4976765;28;45482;-78
2023/06/11 06:37:09;;;;;;;;;38.67;34.00;;;;;26.03;54.58;100821.72;4960168;28;45517;-76
2023/06/11 06:39:34;;;;;;;;;44.67;35.00;;;;;26.04;54.41;100823.38;4973638;28;45371;-76
2023/06/11 06:41:59;;;;;;;;;43.33;36.33;;;;;25.99;54.65;100809.66;4945366;28;47096;-77
2023/06/11 06:44:25;;;;;;;;;53.33;43.00;;;;;26.12;54.52;100811.25;4959500;28;45517;-76
2023/06/11 06:46:53;;;;;;;;;53.67;44.00;;;;;26.20;54.08;100817.13;4976711;28;45314;-79
2023/06/11 06:49:19;;;;;;;;;51.67;41.33;;;;;26.26;53.64;100821.59;4977307;28;45259;-75
2023/06/11 06:51:44;;;;;;;;;48.00;38.67;;;;;26.30;53.87;100811.88;4958242;28;46396;-77
2023/06/11 06:54:10;;;;;;;;;33.67;32.33;;;;;26.34;53.54;100815.78;4975808;28;45429;-76
2023/06/11 06:56:35;;;;;;;;;31.67;28.33;;;;;26.30;53.81;100809.13;4974835;28;45523;-76
2023/06/11 06:59:01;;;;;;;;;46.33;39.00;;;;;26.09;53.99;100763.53;4976824;28;45236;-77
2023/06/11 07:01:26;;;;;;;;;14.00;13.33;;;;;26.46;53.65;100821.16;4955713;28;47921;-79
2023/06/11 07:03:51;;;;;;;;;13.33;12.00;;;;;26.51;53.79;100823.16;4978154;28;45441;-76
2023/06/11 07:06:17;;;;;;;;;17.67;16.67;;;;;26.51;53.85;100834.03;4977875;28;46832;-76
2023/06/11 07:08:42;;;;;;;;;16.00;15.00;;;;;26.55;54.94;100836.03;4978485;28;45535;-76
2023/06/11 07:11:07;;;;;;;;;17.33;15.00;;;;;26.47;54.53;100811.91;4977254;28;48015;-77
2023/06/11 07:13:34;;;;;;;;;17.33;14.33;;;;;26.43;54.61;100793.53;4954620;28;45517;-77
2023/06/11 07:15:59;;;;;;;;;12.67;12.67;;;;;26.53;54.46;100799.19;4941963;28;45420;-78
2023/06/11 07:18:26;;;;;;;;;15.67;14.00;;;;;26.72;54.58;100819.66;4918263;28;1124409;-77
2023/06/11 07:20:51;;;;;;;;;17.00;16.67;;;;;26.90;54.33;100826.75;4959548;28;47635;-77
2023/06/11 07:23:17;;;;;;;;;20.67;17.00;;;;;27.02;54.42;100841.16;4974413;28;56417;-79
2023/06/11 07:25:43;;;;;;;;;18.00;16.00;;;;;27.23;53.78;100858.66;4976991;28;62086;-77
2023/06/11 07:28:09;;;;;;;;;24.33;20.00;;;;;27.34;54.20;100860.44;4960215;28;45586;-77
2023/06/11 07:30:34;;;;;;;;;16.33;14.00;;;;;27.49;53.94;100862.56;4977269;28;45710;-78
2023/06/11 07:33:00;;;;;;;;;17.67;17.67;;;;;27.56;53.62;100847.63;4942589;28;47013;-76
2023/06/11 07:35:26;;;;;;;;;18.67;18.00;;;;;27.58;53.62;100829.09;4973619;28;45155;-77
2023/06/11 07:37:52;;;;;;;;;18.33;18.33;;;;;27.79;53.00;100841.13;4978486;28;45661;-78
2023/06/11 07:40:18;;;;;;;;;14.67;13.67;;;;;27.55;52.46;100801.47;4979577;28;45581;-78
2023/06/11 07:42:45;;;;;;;;;17.00;16.00;;;;;27.99;52.28;100859.66;4979152;28;45519;-77
2023/06/11 07:45:11;;;;;;;;;14.33;14.33;;;;;27.90;52.06;100836.59;4982631;28;45377;-78
2023/06/11 07:47:37;;;;;;;;;16.33;16.33;;;;;27.97;52.19;100845.41;4976710;28;45441;-77
2023/06/11 07:50:06;;;;;;;;;14.00;13.00;;;;;28.15;51.90;100856.00;4977510;28;45563;-79
2023/06/11 07:52:31;;;;;;;;;15.67;14.67;;;;;27.76;51.58;100781.53;4975523;28;45724;-77
2023/06/11 07:54:57;;;;;;;;;16.00;13.33;;;;;28.27;51.39;100849.59;4976942;28;45235;-71
2023/06/11 07:57:23;;;;;;;;;15.67;15.67;;;;;28.31;51.45;100845.25;4976977;28;45627;-76
2023/06/11 07:59:49;;;;;;;;;16.33;12.67;;;;;28.41;50.47;100854.38;4976913;28;46315;-76
2023/06/11 08:02:14;;;;;;;;;15.00;15.00;;;;;28.34;51.01;100828.31;4952463;28;45560;-76
2023/06/11 08:04:40;;;;;;;;;17.00;15.00;;;;;28.41;50.72;100839.88;4959591;28;45480;-77
2023/06/11 08:07:06;;;;;;;;;18.33;15.00;;;;;28.56;49.87;100839.19;4976012;28;45440;-76
2023/06/11 08:09:35;;;;;;;;;13.67;13.33;;;;;28.41;50.22;100802.41;4977995;28;46437;-77
2023/06/11 08:12:01;;;;;;;;;10.67;9.67;;;;;28.74;50.13;100858.75;4980600;28;45307;-75
2023/06/11 08:14:26;;;;;;;;;14.33;14.00;;;;;28.21;49.88;100760.34;4981018;28;45192;-77
2023/06/11 08:16:51;;;;;;;;;14.33;14.33;;;;;28.76;49.25;100839.34;4963245;28;45456;-76
2023/06/11 08:19:17;;;;;;;;;12.67;12.00;;;;;28.71;49.83;100834.66;4980094;28;45569;-79
2023/06/11 08:21:42;;;;;;;;;14.00;14.00;;;;;28.64;49.70;100816.84;4979862;28;45360;-76
2023/06/11 08:24:09;;;;;;;;;14.00;14.00;;;;;28.94;49.75;100849.09;4980274;28;45473;-80
2023/06/11 08:26:34;;;;;;;;;21.67;19.00;;;;;28.93;48.96;100844.69;4980319;28;45349;-73
2023/06/11 08:29:00;;;;;;;;;17.33;15.33;;;;;28.94;49.03;100840.88;4980547;28;45772;-78
2023/06/11 08:31:26;;;;;;;;;17.00;16.00;;;;;28.87;49.65;100845.75;4980533;28;45314;-76
2023/06/11 08:33:52;;;;;;;;;17.33;17.33;;;;;28.84;49.55;100852.56;4979400;28;45879;-78
2023/06/11 08:36:17;;;;;;;;;15.00;15.00;;;;;28.90;49.96;100839.75;4978133;28;45631;-75
2023/06/11 08:38:43;;;;;;;;;14.00;14.00;;;;;28.88;49.52;100831.00;4980230;28;45496;-76
2023/06/11 08:41:09;;;;;;;;;18.33;16.00;;;;;28.98;49.48;100852.94;4979451;28;45390;-75
2023/06/11 08:43:35;;;;;;;;;16.00;14.33;;;;;28.87;49.31;100835.63;4961679;28;45372;-75
2023/06/11 08:46:00;;;;;;;;;13.67;12.67;;;;;28.87;49.65;100837.56;4962451;28;45585;-75
2023/06/11 08:48:29;;;;;;;;;16.00;13.67;;;;;28.44;49.57;100781.94;4979536;28;46457;-75
2023/06/11 08:50:55;;;;;;;;;14.67;14.67;;;;;28.34;50.19;100779.94;4979428;28;45243;-77
2023/06/11 08:53:20;;;;;;;;;15.00;15.00;;;;;28.74;50.41;100844.25;4943873;28;45540;-74
2023/06/11 08:55:46;;;;;;;;;20.00;17.33;;;;;28.73;50.16;100846.16;4942734;28;45542;-74
2023/06/11 08:58:13;;;;;;;;;15.67;14.00;;;;;28.70;50.06;100833.00;4958513;28;47434;-75
2023/06/11 09:00:38;;;;;;;;;11.33;11.33;;;;;28.68;49.26;100843.41;4979168;28;45483;-77
2023/06/11 09:03:04;;;;;;;;;16.67;14.33;;;;;28.62;49.71;100833.47;4964092;28;45775;-75
2023/06/11 09:05:32;;;;;;;;;13.33;12.00;;;;;28.62;49.74;100822.53;4968808;28;45446;-74
2023/06/11 09:07:57;;;;;;;;;10.67;9.33;;;;;28.66;49.62;100823.69;4958364;28;47515;-76
2023/06/11 09:10:23;;;;;;;;;14.67;14.67;;;;;28.82;49.04;100837.47;4968792;28;45335;-76
2023/06/11 09:12:49;;;;;;;;;15.00;15.00;;;;;28.81;49.62;100824.88;4977854;28;45562;-76
2023/06/11 09:15:15;;;;;;;;;13.00;13.00;;;;;28.97;49.45;100843.06;4979273;28;45443;-73
2023/06/11 09:17:43;;;;;;;;;16.00;16.00;;;;;29.01;49.57;100830.50;4978857;28;46864;-74
2023/06/11 09:20:13;;;;;;;;;18.33;13.33;;;;;29.02;49.51;100834.88;4977148;28;45392;-73
2023/06/11 09:22:41;;;;;;;;;20.33;17.33;;;;;29.07;49.23;100824.00;4976214;28;45361;-73
2023/06/11 09:25:16;;;;;;;;;15.00;15.00;;;;;29.25;49.42;100853.69;4975929;28;45524;-73
2023/06/11 09:27:43;;;;;;;;;16.67;16.00;;;;;29.14;48.88;100846.47;4977705;28;48398;-75
2023/06/11 09:30:16;;;;;;;;;14.33;13.67;;;;;29.22;48.68;100853.34;4978766;28;45275;-75
2023/06/11 09:32:44;;;;;;;;;16.67;15.67;;;;;29.20;48.63;100855.53;4960562;28;45554;-74
2023/06/11 09:35:10;;;;;;;;;16.00;16.00;;;;;29.24;48.48;100862.97;4975886;28;45651;-76
2023/06/11 09:37:43;;;;;;;;;15.00;15.00;;;;;29.16;48.24;100849.78;4976930;28;46973;-73
2023/06/11 09:40:11;;;;;;;;;18.33;16.67;;;;;29.15;49.04;100856.34;4978460;28;45240;-75
2023/06/11 09:42:37;;;;;;;;;19.33;17.67;;;;;28.89;49.69;100813.47;4960718;28;45626;-74
2023/06/11 09:45:02;;;;;;;;;20.33;18.67;;;;;29.22;49.25;100861.56;4978023;28;45688;-73
2023/06/11 09:47:30;;;;;;;;;22.00;20.33;;;;;29.16;49.45;100844.28;4959766;28;47416;-73
2023/06/11 09:49:58;;;;;;;;;19.33;17.00;;;;;29.25;49.37;100867.38;4978594;28;45535;-73
2023/06/11 09:52:26;;;;;;;;;21.67;20.00;;;;;29.35;49.42;100870.16;4959886;28;45373;-74
2023/06/11 09:54:52;;;;;;;;;16.00;16.00;;;;;29.19;48.94;100838.28;4978914;28;45691;-74
2023/06/11 09:57:18;;;;;;;;;38.67;34.33;;;;;29.42;48.67;100860.84;4973370;28;46665;-82
2023/06/11 09:59:44;;;;;;;;;24.00;22.33;;;;;29.16;48.23;100822.41;4977911;28;45556;-73
2023/06/11 10:02:10;;;;;;;;;24.67;23.33;;;;;28.91;48.47;100792.97;4958056;28;45579;-74
2023/06/11 10:04:35;;;;;;;;;22.33;22.33;;;;;29.50;48.14;100865.88;4974807;28;45540;-73
2023/06/11 10:07:01;;;;;;;;;18.00;17.00;;;;;29.57;48.07;100880.16;4977425;28;45552;-75
2023/06/11 10:09:30;;;;;;;;;22.00;22.00;;;;;29.47;48.00;100866.41;4977796;28;45507;-72
2023/06/11 10:11:56;;;;;;;;;18.67;16.67;;;;;29.43;47.39;100843.34;4977838;28;45214;-75
2023/06/11 10:14:22;;;;;;;;;18.00;18.00;;;;;29.64;47.46;100876.09;4960522;28;45265;-76
2023/06/11 10:16:51;;;;;;;;;15.00;15.00;;;;;29.64;47.28;100876.09;4977487;28;46397;-75
2023/06/11 10:19:17;;;;;;;;;25.67;24.33;;;;;29.62;46.95;100877.44;4977500;28;45527;-74
2023/06/11 10:21:49;;;;;;;;;22.33;19.67;;;;;29.32;46.98;100829.59;4974587;28;45394;-76
2023/06/11 10:24:24;;;;;;;;;17.67;17.67;;;;;29.69;47.10;100875.28;4977721;28;45325;-73
2023/06/11 10:27:13;;;;;;;;;15.67;15.67;;;;;29.71;46.13;100877.75;4976834;28;45894;-76
2023/06/11 10:29:41;;;;;;;;;19.00;17.33;;;;;29.48;46.48;100846.97;4976748;28;45286;-74
2023/06/11 10:32:20;;;;;;;;;18.00;18.00;;;;;29.68;47.26;100876.38;4975015;28;45551;-74
2023/06/11 10:34:56;;;;;;;;;20.33;19.67;;;;;29.79;46.75;100888.19;4949064;28;45703;-72
2023/06/11 10:37:35;;;;;;;;;17.00;15.67;;;;;29.76;46.56;100892.28;4972411;28;47223;-76
2023/06/11 10:40:01;;;;;;;;;19.67;18.67;;;;;29.66;46.72;100890.34;4977242;28;45318;-74
2023/06/11 10:42:33;;;;;;;;;20.00;20.00;;;;;29.39;46.53;100843.88;4972393;28;45315;-74
2023/06/11 10:45:14;;;;;;;;;18.67;17.67;;;;;29.57;46.79;100877.41;4958182;28;45560;-74
2023/06/11 10:47:42;;;;;;;;;18.00;18.00;;;;;29.13;45.99;100820.19;4974228;28;45766;-74
2023/06/11 10:50:10;;;;;;;;;23.00;23.00;;;;;29.47;46.19;100888.34;4971438;28;45472;-77
2023/06/11 10:52:49;;;;;;;;;24.33;21.00;;;;;29.45;46.26;100895.97;4971277;28;45539;-76
2023/06/11 10:55:17;;;;;;;;;21.33;19.33;;;;;28.63;46.38;100764.03;4977821;28;45342;-73
2023/06/11 10:57:42;;;;;;;;;21.00;20.33;;;;;29.46;46.73;100881.22;4960916;28;47552;-74
2023/06/11 11:00:09;;;;;;;;;20.33;19.67;;;;;29.48;46.59;100888.06;4966188;28;45591;-74
2023/06/11 11:02:35;;;;;;;;;25.67;23.67;;;;;29.51;47.15;100890.28;4961583;28;45311;-73
2023/06/11 11:05:00;;;;;;;;;27.67;24.00;;;;;29.41;47.96;100878.38;4977096;28;45537;-76
2023/06/11 11:07:33;;;;;;;;;24.67;23.33;;;;;29.43;48.29;100892.63;4975027;28;47504;-75